sensor_id;sensor_type;location;lat;lon;timestamp;P1;durP1;ratioP1;P2;durP2;ratioP2
8102;SDS011;4094;49.948;11.574;2022-12-20T00:01:58;27.70;;;25.00;;
8102;SDS011;4094;49.948;11.574;2022-12-20T00:04:27;27.77;;;24.90;;
8102;SDS011;4094;49.948;11.574;2022-12-20T00:06:57;28.60;;;25.60;;
8102;SDS011;4094;49.948;11.574;2022-12-20T00:09:26;28.43;;;25.63;;
8102;SDS011;4094;49.948;11.574;2022-12-20T00:11:56;26.77;;;23.83;;
8102;SDS011;4094;49.948;11.574;2022-12-20T00:14:26;27.53;;;24.63;;
8102;SDS011;4094;49.948;11.574;2022-12-20T00:16:55;28.80;;;25.80;;
8102;SDS011;4094;49.948;11.574;2022-12-20T00:19:24;27.53;;;24.70;;
8102;SDS011;4094;49.948;11.574;2022-12-20T00:21:53;28.77;;;25.77;;
8102;SDS011;4094;49.948;11.574;2022-12-20T00:24:22;27.40;;;24.60;;
8102;SDS011;4094;49.948;11.574;2022-12-20T00:26:52;27.10;;;24.30;;
8102;SDS011;4094;49.948;11.574;2022-12-20T00:29:21;27.23;;;24.33;;
8102;SDS011;4094;49.948;11.574;2022-12-20T00:31:52;28.40;;;25.17;;
8102;SDS011;4094;49.948;11.574;2022-12-20T00:34:21;28.17;;;25.37;;
8102;SDS011;4094;49.948;11.574;2022-12-20T00:36:49;25.43;;;23.03;;
8102;SDS011;4094;49.948;11.574;2022-12-20T00:39:19;27.13;;;24.33;;
8102;SDS011;4094;49.948;11.574;2022-12-20T00:41:48;28.27;;;25.33;;
8102;SDS011;4094;49.948;11.574;2022-12-20T00:44:17;27.03;;;24.33;;
8102;SDS011;4094;49.948;11.574;2022-12-20T00:46:46;27.63;;;24.83;;
8102;SDS011;4094;49.948;11.574;2022-12-20T00:49:16;27.20;;;24.33;;
8102;SDS011;4094;49.948;11.574;2022-12-20T00:51:46;26.97;;;24.17;;
8102;SDS011;4094;49.948;11.574;2022-12-20T00:54:15;27.43;;;24.53;;
8102;SDS011;4094;49.948;11.574;2022-12-20T00:56:44;28.27;;;25.37;;
8102;SDS011;4094;49.948;11.574;2022-12-20T00:59:13;27.47;;;24.77;;
8102;SDS011;4094;49.948;11.574;2022-12-20T01:01:42;27.20;;;24.50;;
8102;SDS011;4094;49.948;11.574;2022-12-20T01:04:11;26.23;;;23.67;;
8102;SDS011;4094;49.948;11.574;2022-12-20T01:06:43;26.43;;;23.80;;
8102;SDS011;4094;49.948;11.574;2022-12-20T01:09:12;26.63;;;23.93;;
8102;SDS011;4094;49.948;11.574;2022-12-20T01:11:41;25.57;;;23.07;;
8102;SDS011;4094;49.948;11.574;2022-12-20T01:14:11;25.53;;;22.87;;
8102;SDS011;4094;49.948;11.574;2022-12-20T01:16:46;27.43;;;24.57;;
8102;SDS011;4094;49.948;11.574;2022-12-20T01:19:15;26.53;;;23.93;;
8102;SDS011;4094;49.948;11.574;2022-12-20T01:21:46;26.83;;;24.13;;
8102;SDS011;4094;49.948;11.574;2022-12-20T01:24:16;27.80;;;25.03;;
8102;SDS011;4094;49.948;11.574;2022-12-20T01:26:46;28.87;;;25.47;;
8102;SDS011;4094;49.948;11.574;2022-12-20T01:29:18;25.93;;;23.33;;
8102;SDS011;4094;49.948;11.574;2022-12-20T01:31:47;28.10;;;25.23;;
8102;SDS011;4094;49.948;11.574;2022-12-20T01:34:16;28.57;;;25.73;;
8102;SDS011;4094;49.948;11.574;2022-12-20T01:36:47;29.43;;;26.47;;
8102;SDS011;4094;49.948;11.574;2022-12-20T01:39:15;26.60;;;24.03;;
8102;SDS011;4094;49.948;11.574;2022-12-20T01:41:45;27.57;;;24.77;;
8102;SDS011;4094;49.948;11.574;2022-12-20T01:47:21;28.07;;;25.10;;
8102;SDS011;4094;49.948;11.574;2022-12-20T01:49:53;27.47;;;24.67;;
8102;SDS011;4094;49.948;11.574;2022-12-20T01:52:27;28.50;;;25.50;;
8102;SDS011;4094;49.948;11.574;2022-12-20T01:55:01;26.60;;;23.90;;
8102;SDS011;4094;49.948;11.574;2022-12-20T01:57:35;27.60;;;24.70;;
8102;SDS011;4094;49.948;11.574;2022-12-20T02:00:08;28.40;;;25.63;;
8102;SDS011;4094;49.948;11.574;2022-12-20T02:02:42;27.53;;;24.77;;
8102;SDS011;4094;49.948;11.574;2022-12-20T02:05:13;28.80;;;25.63;;
8102;SDS011;4094;49.948;11.574;2022-12-20T02:07:46;27.93;;;25.13;;
8102;SDS011;4094;49.948;11.574;2022-12-20T02:10:20;28.33;;;25.53;;
8102;SDS011;4094;49.948;11.574;2022-12-20T02:12:52;26.60;;;23.90;;
8102;SDS011;4094;49.948;11.574;2022-12-20T02:15:34;27.60;;;24.87;;
8102;SDS011;4094;49.948;11.574;2022-12-20T02:18:16;26.93;;;24.37;;
8102;SDS011;4094;49.948;11.574;2022-12-20T02:26:58;27.93;;;25.07;;
8102;SDS011;4094;49.948;11.574;2022-12-20T02:29:58;28.00;;;25.00;;
8102;SDS011;4094;49.948;11.574;2022-12-20T02:32:34;29.17;;;26.07;;
8102;SDS011;4094;49.948;11.574;2022-12-20T02:35:08;30.40;;;27.03;;
8102;SDS011;4094;49.948;11.574;2022-12-20T02:37:47;29.87;;;26.73;;
8102;SDS011;4094;49.948;11.574;2022-12-20T02:40:20;28.10;;;25.30;;
8102;SDS011;4094;49.948;11.574;2022-12-20T02:42:53;28.43;;;25.43;;
8102;SDS011;4094;49.948;11.574;2022-12-20T02:45:27;29.67;;;26.57;;
8102;SDS011;4094;49.948;11.574;2022-12-20T02:48:05;28.80;;;25.93;;
8102;SDS011;4094;49.948;11.574;2022-12-20T02:50:37;29.07;;;26.17;;
8102;SDS011;4094;49.948;11.574;2022-12-20T02:53:08;29.17;;;26.17;;
8102;SDS011;4094;49.948;11.574;2022-12-20T02:55:40;28.77;;;25.77;;
8102;SDS011;4094;49.948;11.574;2022-12-20T02:58:17;28.73;;;25.73;;
8102;SDS011;4094;49.948;11.574;2022-12-20T03:00:58;27.57;;;24.70;;
8102;SDS011;4094;49.948;11.574;2022-12-20T03:03:32;27.77;;;25.00;;
8102;SDS011;4094;49.948;11.574;2022-12-20T03:06:03;28.57;;;25.60;;
8102;SDS011;4094;49.948;11.574;2022-12-20T03:08:32;28.87;;;25.80;;
8102;SDS011;4094;49.948;11.574;2022-12-20T03:11:02;30.10;;;27.00;;
8102;SDS011;4094;49.948;11.574;2022-12-20T03:13:32;30.10;;;26.90;;
8102;SDS011;4094;49.948;11.574;2022-12-20T03:16:07;27.60;;;24.73;;
8102;SDS011;4094;49.948;11.574;2022-12-20T03:18:37;29.63;;;26.73;;
8102;SDS011;4094;49.948;11.574;2022-12-20T03:21:07;30.63;;;27.43;;
8102;SDS011;4094;49.948;11.574;2022-12-20T03:23:36;28.37;;;25.67;;
8102;SDS011;4094;49.948;11.574;2022-12-20T03:26:06;30.83;;;27.53;;
8102;SDS011;4094;49.948;11.574;2022-12-20T03:28:40;29.67;;;26.53;;
8102;SDS011;4094;49.948;11.574;2022-12-20T03:31:14;30.07;;;26.53;;
8102;SDS011;4094;49.948;11.574;2022-12-20T03:33:49;29.27;;;26.27;;
8102;SDS011;4094;49.948;11.574;2022-12-20T03:36:18;29.87;;;26.83;;
8102;SDS011;4094;49.948;11.574;2022-12-20T03:38:54;29.20;;;26.00;;
8102;SDS011;4094;49.948;11.574;2022-12-20T03:41:25;31.03;;;27.93;;
8102;SDS011;4094;49.948;11.574;2022-12-20T03:43:55;30.30;;;27.20;;
8102;SDS011;4094;49.948;11.574;2022-12-20T03:46:26;30.70;;;27.57;;
8102;SDS011;4094;49.948;11.574;2022-12-20T03:48:55;31.37;;;28.17;;
8102;SDS011;4094;49.948;11.574;2022-12-20T03:51:24;30.97;;;27.87;;
8102;SDS011;4094;49.948;11.574;2022-12-20T03:53:53;30.53;;;27.33;;
8102;SDS011;4094;49.948;11.574;2022-12-20T03:56:31;31.17;;;27.97;;
8102;SDS011;4094;49.948;11.574;2022-12-20T03:59:02;30.83;;;27.60;;
8102;SDS011;4094;49.948;11.574;2022-12-20T04:01:33;30.87;;;27.60;;
8102;SDS011;4094;49.948;11.574;2022-12-20T04:04:06;30.40;;;27.27;;
8102;SDS011;4094;49.948;11.574;2022-12-20T04:06:37;30.73;;;27.63;;
8102;SDS011;4094;49.948;11.574;2022-12-20T04:09:06;31.40;;;27.93;;
8102;SDS011;4094;49.948;11.574;2022-12-20T04:11:42;30.90;;;27.70;;
8102;SDS011;4094;49.948;11.574;2022-12-20T04:14:14;29.50;;;26.50;;
8102;SDS011;4094;49.948;11.574;2022-12-20T04:16:45;31.03;;;27.93;;
8102;SDS011;4094;49.948;11.574;2022-12-20T04:19:14;31.80;;;28.47;;
8102;SDS011;4094;49.948;11.574;2022-12-20T04:21:47;28.70;;;25.60;;
8102;SDS011;4094;49.948;11.574;2022-12-20T04:24:21;31.60;;;27.80;;
8102;SDS011;4094;49.948;11.574;2022-12-20T04:27:21;31.93;;;28.60;;
8102;SDS011;4094;49.948;11.574;2022-12-20T04:29:57;31.27;;;28.10;;
8102;SDS011;4094;49.948;11.574;2022-12-20T04:32:28;29.27;;;26.17;;
8102;SDS011;4094;49.948;11.574;2022-12-20T04:34:57;33.70;;;26.87;;
8102;SDS011;4094;49.948;11.574;2022-12-20T04:37:27;29.57;;;26.57;;
8102;SDS011;4094;49.948;11.574;2022-12-20T04:39:57;29.50;;;26.60;;
8102;SDS011;4094;49.948;11.574;2022-12-20T04:42:47;29.70;;;26.60;;
8102;SDS011;4094;49.948;11.574;2022-12-20T04:45:17;30.27;;;27.17;;
8102;SDS011;4094;49.948;11.574;2022-12-20T04:47:48;29.30;;;26.30;;
8102;SDS011;4094;49.948;11.574;2022-12-20T04:50:23;29.07;;;26.17;;
8102;SDS011;4094;49.948;11.574;2022-12-20T04:52:53;31.47;;;28.07;;
8102;SDS011;4094;49.948;11.574;2022-12-20T04:55:39;29.63;;;26.63;;
8102;SDS011;4094;49.948;11.574;2022-12-20T04:58:08;31.90;;;28.60;;
8102;SDS011;4094;49.948;11.574;2022-12-20T05:00:39;30.20;;;27.17;;
8102;SDS011;4094;49.948;11.574;2022-12-20T05:03:24;31.20;;;28.00;;
8102;SDS011;4094;49.948;11.574;2022-12-20T05:05:55;31.10;;;27.90;;
8102;SDS011;4094;49.948;11.574;2022-12-20T05:08:24;31.13;;;27.87;;
8102;SDS011;4094;49.948;11.574;2022-12-20T05:10:53;29.90;;;26.97;;
8102;SDS011;4094;49.948;11.574;2022-12-20T05:13:22;29.87;;;26.87;;
8102;SDS011;4094;49.948;11.574;2022-12-20T05:15:51;29.80;;;26.80;;
8102;SDS011;4094;49.948;11.574;2022-12-20T05:18:26;29.80;;;26.80;;
8102;SDS011;4094;49.948;11.574;2022-12-20T05:21:00;31.83;;;28.60;;
8102;SDS011;4094;49.948;11.574;2022-12-20T05:23:49;30.17;;;27.00;;
8102;SDS011;4094;49.948;11.574;2022-12-20T05:27:05;29.67;;;26.70;;
8102;SDS011;4094;49.948;11.574;2022-12-20T05:29:34;30.20;;;26.70;;
8102;SDS011;4094;49.948;11.574;2022-12-20T05:32:05;30.73;;;27.40;;
8102;SDS011;4094;49.948;11.574;2022-12-20T05:34:39;31.57;;;28.27;;
8102;SDS011;4094;49.948;11.574;2022-12-20T05:37:08;30.07;;;26.80;;
8102;SDS011;4094;49.948;11.574;2022-12-20T05:39:39;30.73;;;27.50;;
8102;SDS011;4094;49.948;11.574;2022-12-20T05:42:16;31.87;;;28.60;;
8102;SDS011;4094;49.948;11.574;2022-12-20T05:44:49;30.80;;;27.70;;
8102;SDS011;4094;49.948;11.574;2022-12-20T05:47:20;31.73;;;28.53;;
8102;SDS011;4094;49.948;11.574;2022-12-20T05:49:59;32.13;;;28.70;;
8102;SDS011;4094;49.948;11.574;2022-12-20T05:52:33;31.73;;;28.37;;
8102;SDS011;4094;49.948;11.574;2022-12-20T05:55:02;30.60;;;27.50;;
8102;SDS011;4094;49.948;11.574;2022-12-20T05:57:34;31.20;;;27.97;;
8102;SDS011;4094;49.948;11.574;2022-12-20T06:00:04;32.73;;;29.27;;
8102;SDS011;4094;49.948;11.574;2022-12-20T06:02:43;30.07;;;26.20;;
8102;SDS011;4094;49.948;11.574;2022-12-20T06:05:14;29.20;;;26.13;;
8102;SDS011;4094;49.948;11.574;2022-12-20T06:07:44;29.33;;;26.23;;
8102;SDS011;4094;49.948;11.574;2022-12-20T06:10:14;29.53;;;26.47;;
8102;SDS011;4094;49.948;11.574;2022-12-20T06:12:56;29.03;;;26.13;;
8102;SDS011;4094;49.948;11.574;2022-12-20T06:15:26;29.37;;;26.30;;
8102;SDS011;4094;49.948;11.574;2022-12-20T06:17:59;29.33;;;26.23;;
8102;SDS011;4094;49.948;11.574;2022-12-20T06:20:31;30.27;;;27.20;;
8102;SDS011;4094;49.948;11.574;2022-12-20T06:23:02;29.67;;;26.57;;
8102;SDS011;4094;49.948;11.574;2022-12-20T06:25:40;31.33;;;28.03;;
8102;SDS011;4094;49.948;11.574;2022-12-20T06:28:11;28.87;;;25.87;;
8102;SDS011;4094;49.948;11.574;2022-12-20T06:30:40;29.70;;;26.73;;
8102;SDS011;4094;49.948;11.574;2022-12-20T06:33:18;30.57;;;27.30;;
8102;SDS011;4094;49.948;11.574;2022-12-20T06:35:49;30.23;;;27.13;;
8102;SDS011;4094;49.948;11.574;2022-12-20T06:38:21;29.50;;;26.50;;
8102;SDS011;4094;49.948;11.574;2022-12-20T06:40:50;30.40;;;27.30;;
8102;SDS011;4094;49.948;11.574;2022-12-20T06:43:19;29.37;;;26.40;;
8102;SDS011;4094;49.948;11.574;2022-12-20T06:45:48;29.93;;;26.73;;
8102;SDS011;4094;49.948;11.574;2022-12-20T06:48:18;29.70;;;26.53;;
8102;SDS011;4094;49.948;11.574;2022-12-20T06:50:50;30.77;;;27.43;;
8102;SDS011;4094;49.948;11.574;2022-12-20T06:53:23;30.03;;;27.03;;
8102;SDS011;4094;49.948;11.574;2022-12-20T06:55:52;31.07;;;27.77;;
8102;SDS011;4094;49.948;11.574;2022-12-20T06:58:22;29.50;;;26.53;;
8102;SDS011;4094;49.948;11.574;2022-12-20T07:00:51;29.80;;;26.80;;
8102;SDS011;4094;49.948;11.574;2022-12-20T07:03:20;29.97;;;26.77;;
8102;SDS011;4094;49.948;11.574;2022-12-20T07:05:51;30.40;;;27.10;;
8102;SDS011;4094;49.948;11.574;2022-12-20T07:08:22;31.53;;;28.27;;
8102;SDS011;4094;49.948;11.574;2022-12-20T07:10:51;31.97;;;27.90;;
8102;SDS011;4094;49.948;11.574;2022-12-20T07:13:21;30.53;;;27.37;;
8102;SDS011;4094;49.948;11.574;2022-12-20T07:15:56;30.43;;;27.33;;
8102;SDS011;4094;49.948;11.574;2022-12-20T07:18:25;30.20;;;26.97;;
8102;SDS011;4094;49.948;11.574;2022-12-20T07:20:59;31.73;;;28.30;;
8102;SDS011;4094;49.948;11.574;2022-12-20T07:23:28;31.03;;;27.87;;
8102;SDS011;4094;49.948;11.574;2022-12-20T07:25:58;31.63;;;28.23;;
8102;SDS011;4094;49.948;11.574;2022-12-20T07:28:31;32.00;;;28.57;;
8102;SDS011;4094;49.948;11.574;2022-12-20T07:31:00;30.40;;;27.30;;
8102;SDS011;4094;49.948;11.574;2022-12-20T07:33:31;31.70;;;28.40;;
8102;SDS011;4094;49.948;11.574;2022-12-20T07:36:02;31.17;;;28.03;;
8102;SDS011;4094;49.948;11.574;2022-12-20T07:38:32;32.00;;;28.70;;
8102;SDS011;4094;49.948;11.574;2022-12-20T07:41:05;31.00;;;27.70;;
8102;SDS011;4094;49.948;11.574;2022-12-20T07:43:35;31.10;;;27.70;;
8102;SDS011;4094;49.948;11.574;2022-12-20T07:46:05;33.37;;;28.80;;
8102;SDS011;4094;49.948;11.574;2022-12-20T07:48:35;30.97;;;27.53;;
8102;SDS011;4094;49.948;11.574;2022-12-20T07:51:07;30.73;;;27.43;;
8102;SDS011;4094;49.948;11.574;2022-12-20T07:53:39;30.93;;;27.60;;
8102;SDS011;4094;49.948;11.574;2022-12-20T07:56:13;32.30;;;28.87;;
8102;SDS011;4094;49.948;11.574;2022-12-20T07:58:44;30.83;;;27.60;;
8102;SDS011;4094;49.948;11.574;2022-12-20T08:01:13;31.23;;;28.10;;
8102;SDS011;4094;49.948;11.574;2022-12-20T08:03:43;30.90;;;27.60;;
8102;SDS011;4094;49.948;11.574;2022-12-20T08:06:16;31.07;;;27.83;;
8102;SDS011;4094;49.948;11.574;2022-12-20T08:08:48;28.60;;;25.77;;
8102;SDS011;4094;49.948;11.574;2022-12-20T08:11:20;30.20;;;27.00;;
8102;SDS011;4094;49.948;11.574;2022-12-20T08:13:50;32.27;;;28.30;;
8102;SDS011;4094;49.948;11.574;2022-12-20T08:16:24;30.70;;;27.43;;
8102;SDS011;4094;49.948;11.574;2022-12-20T08:18:54;30.20;;;27.00;;
8102;SDS011;4094;49.948;11.574;2022-12-20T08:21:24;31.77;;;28.37;;
8102;SDS011;4094;49.948;11.574;2022-12-20T08:23:53;29.43;;;26.53;;
8102;SDS011;4094;49.948;11.574;2022-12-20T08:26:23;32.30;;;28.40;;
8102;SDS011;4094;49.948;11.574;2022-12-20T08:28:53;30.40;;;27.27;;
8102;SDS011;4094;49.948;11.574;2022-12-20T08:31:22;30.07;;;26.87;;
8102;SDS011;4094;49.948;11.574;2022-12-20T08:33:52;31.50;;;28.10;;
8102;SDS011;4094;49.948;11.574;2022-12-20T08:36:22;30.20;;;27.10;;
8102;SDS011;4094;49.948;11.574;2022-12-20T08:38:53;31.00;;;27.70;;
8102;SDS011;4094;49.948;11.574;2022-12-20T08:41:22;30.60;;;27.00;;
8102;SDS011;4094;49.948;11.574;2022-12-20T08:43:51;31.17;;;27.03;;
8102;SDS011;4094;49.948;11.574;2022-12-20T08:46:20;30.00;;;26.60;;
8102;SDS011;4094;49.948;11.574;2022-12-20T08:48:50;31.47;;;27.70;;
8102;SDS011;4094;49.948;11.574;2022-12-20T08:51:19;29.97;;;26.73;;
8102;SDS011;4094;49.948;11.574;2022-12-20T08:53:49;29.83;;;26.73;;
8102;SDS011;4094;49.948;11.574;2022-12-20T08:56:21;29.97;;;26.43;;
8102;SDS011;4094;49.948;11.574;2022-12-20T08:58:50;31.60;;;28.20;;
8102;SDS011;4094;49.948;11.574;2022-12-20T09:01:19;32.13;;;28.73;;
8102;SDS011;4094;49.948;11.574;2022-12-20T09:03:50;30.80;;;27.70;;
8102;SDS011;4094;49.948;11.574;2022-12-20T09:06:20;30.27;;;27.10;;
8102;SDS011;4094;49.948;11.574;2022-12-20T09:08:50;29.87;;;26.77;;
8102;SDS011;4094;49.948;11.574;2022-12-20T09:11:22;31.13;;;27.47;;
8102;SDS011;4094;49.948;11.574;2022-12-20T09:13:53;30.43;;;27.27;;
8102;SDS011;4094;49.948;11.574;2022-12-20T09:16:24;30.60;;;27.27;;
8102;SDS011;4094;49.948;11.574;2022-12-20T09:18:55;29.33;;;26.23;;
8102;SDS011;4094;49.948;11.574;2022-12-20T09:21:32;30.17;;;27.00;;
8102;SDS011;4094;49.948;11.574;2022-12-20T09:24:03;29.77;;;26.63;;
8102;SDS011;4094;49.948;11.574;2022-12-20T09:26:33;30.40;;;27.17;;
8102;SDS011;4094;49.948;11.574;2022-12-20T09:29:03;30.33;;;27.10;;
8102;SDS011;4094;49.948;11.574;2022-12-20T09:31:32;30.93;;;27.60;;
8102;SDS011;4094;49.948;11.574;2022-12-20T09:34:02;30.33;;;27.10;;
8102;SDS011;4094;49.948;11.574;2022-12-20T09:36:31;26.27;;;23.47;;
8102;SDS011;4094;49.948;11.574;2022-12-20T09:39:00;27.80;;;24.97;;
8102;SDS011;4094;49.948;11.574;2022-12-20T09:41:30;28.67;;;25.73;;
8102;SDS011;4094;49.948;11.574;2022-12-20T09:44:06;26.43;;;23.63;;
8102;SDS011;4094;49.948;11.574;2022-12-20T09:46:41;28.23;;;25.23;;
8102;SDS011;4094;49.948;11.574;2022-12-20T09:49:13;28.13;;;25.23;;
8102;SDS011;4094;49.948;11.574;2022-12-20T09:51:53;28.70;;;25.80;;
8102;SDS011;4094;49.948;11.574;2022-12-20T09:54:36;29.10;;;26.07;;
8102;SDS011;4094;49.948;11.574;2022-12-20T09:57:16;27.27;;;24.37;;
8102;SDS011;4094;49.948;11.574;2022-12-20T09:59:55;27.00;;;24.30;;
8102;SDS011;4094;49.948;11.574;2022-12-20T10:02:25;27.13;;;24.40;;
8102;SDS011;4094;49.948;11.574;2022-12-20T10:05:19;25.73;;;23.13;;
8102;SDS011;4094;49.948;11.574;2022-12-20T10:08:10;27.50;;;24.60;;
8102;SDS011;4094;49.948;11.574;2022-12-20T10:10:53;27.93;;;25.07;;
8102;SDS011;4094;49.948;11.574;2022-12-20T10:13:32;28.13;;;24.73;;
8102;SDS011;4094;49.948;11.574;2022-12-20T10:16:13;26.73;;;23.93;;
8102;SDS011;4094;49.948;11.574;2022-12-20T10:18:53;26.40;;;23.60;;
8102;SDS011;4094;49.948;11.574;2022-12-20T10:21:35;27.40;;;24.63;;
8102;SDS011;4094;49.948;11.574;2022-12-20T10:24:14;28.90;;;25.90;;
8102;SDS011;4094;49.948;11.574;2022-12-20T10:26:47;26.17;;;23.53;;
8102;SDS011;4094;49.948;11.574;2022-12-20T10:29:19;27.20;;;24.30;;
8102;SDS011;4094;49.948;11.574;2022-12-20T10:31:50;27.10;;;24.20;;
8102;SDS011;4094;49.948;11.574;2022-12-20T10:34:22;29.03;;;26.13;;
8102;SDS011;4094;49.948;11.574;2022-12-20T10:36:55;29.30;;;26.23;;
8102;SDS011;4094;49.948;11.574;2022-12-20T10:39:39;27.60;;;24.67;;
8102;SDS011;4094;49.948;11.574;2022-12-20T10:42:23;28.23;;;25.33;;
8102;SDS011;4094;49.948;11.574;2022-12-20T10:44:56;28.47;;;25.57;;
8102;SDS011;4094;49.948;11.574;2022-12-20T10:47:30;27.80;;;24.87;;
8102;SDS011;4094;49.948;11.574;2022-12-20T10:50:11;27.33;;;24.53;;
8102;SDS011;4094;49.948;11.574;2022-12-20T10:52:45;28.80;;;25.73;;
8102;SDS011;4094;49.948;11.574;2022-12-20T10:55:33;28.93;;;25.93;;
8102;SDS011;4094;49.948;11.574;2022-12-20T10:58:04;30.10;;;26.90;;
8102;SDS011;4094;49.948;11.574;2022-12-20T11:00:42;28.30;;;25.30;;
8102;SDS011;4094;49.948;11.574;2022-12-20T11:03:14;28.10;;;25.30;;
8102;SDS011;4094;49.948;11.574;2022-12-20T11:05:53;27.87;;;24.97;;
8102;SDS011;4094;49.948;11.574;2022-12-20T11:08:24;27.60;;;24.67;;
8102;SDS011;4094;49.948;11.574;2022-12-20T11:11:15;27.93;;;25.03;;
8102;SDS011;4094;49.948;11.574;2022-12-20T11:13:46;28.03;;;25.13;;
8102;SDS011;4094;49.948;11.574;2022-12-20T11:16:27;29.33;;;26.13;;
8102;SDS011;4094;49.948;11.574;2022-12-20T11:19:05;27.60;;;24.63;;
8102;SDS011;4094;49.948;11.574;2022-12-20T11:21:57;28.47;;;25.57;;
8102;SDS011;4094;49.948;11.574;2022-12-20T11:24:34;29.40;;;26.30;;
8102;SDS011;4094;49.948;11.574;2022-12-20T11:27:14;28.57;;;25.57;;
8102;SDS011;4094;49.948;11.574;2022-12-20T11:30:00;28.90;;;25.17;;
8102;SDS011;4094;49.948;11.574;2022-12-20T11:32:38;28.90;;;25.73;;
8102;SDS011;4094;49.948;11.574;2022-12-20T11:35:21;28.70;;;25.80;;
8102;SDS011;4094;49.948;11.574;2022-12-20T11:37:56;27.73;;;24.93;;
8102;SDS011;4094;49.948;11.574;2022-12-20T11:40:37;27.77;;;24.90;;
8102;SDS011;4094;49.948;11.574;2022-12-20T11:43:16;26.73;;;23.90;;
8102;SDS011;4094;49.948;11.574;2022-12-20T11:46:00;28.47;;;25.47;;
8102;SDS011;4094;49.948;11.574;2022-12-20T11:48:44;28.80;;;25.03;;
8102;SDS011;4094;49.948;11.574;2022-12-20T11:51:29;28.20;;;24.70;;
8102;SDS011;4094;49.948;11.574;2022-12-20T11:54:08;30.40;;;25.97;;
8102;SDS011;4094;49.948;11.574;2022-12-20T11:56:41;29.10;;;26.00;;
8102;SDS011;4094;49.948;11.574;2022-12-20T11:59:16;27.73;;;24.93;;
8102;SDS011;4094;49.948;11.574;2022-12-20T12:01:51;28.70;;;25.73;;
8102;SDS011;4094;49.948;11.574;2022-12-20T12:04:28;27.23;;;24.43;;
8102;SDS011;4094;49.948;11.574;2022-12-20T12:07:01;28.53;;;25.63;;
8102;SDS011;4094;49.948;11.574;2022-12-20T12:09:37;28.53;;;25.63;;
8102;SDS011;4094;49.948;11.574;2022-12-20T12:12:16;27.47;;;24.67;;
8102;SDS011;4094;49.948;11.574;2022-12-20T12:14:53;29.57;;;25.97;;
8102;SDS011;4094;49.948;11.574;2022-12-20T12:17:31;29.67;;;26.40;;
8102;SDS011;4094;49.948;11.574;2022-12-20T12:20:21;26.93;;;24.27;;
8102;SDS011;4094;49.948;11.574;2022-12-20T12:22:57;27.57;;;24.67;;
8102;SDS011;4094;49.948;11.574;2022-12-20T12:25:32;27.80;;;24.83;;
8102;SDS011;4094;49.948;11.574;2022-12-20T12:28:02;27.07;;;24.27;;
8102;SDS011;4094;49.948;11.574;2022-12-20T12:30:35;26.53;;;23.70;;
8102;SDS011;4094;49.948;11.574;2022-12-20T12:33:08;28.47;;;25.00;;
8102;SDS011;4094;49.948;11.574;2022-12-20T12:35:54;26.77;;;23.87;;
8102;SDS011;4094;49.948;11.574;2022-12-20T12:38:42;26.50;;;23.80;;
8102;SDS011;4094;49.948;11.574;2022-12-20T12:41:57;26.07;;;23.37;;
8102;SDS011;4094;49.948;11.574;2022-12-20T12:44:45;26.23;;;23.53;;
8102;SDS011;4094;49.948;11.574;2022-12-20T12:47:20;27.40;;;24.50;;
8102;SDS011;4094;49.948;11.574;2022-12-20T12:49:52;27.43;;;24.47;;
8102;SDS011;4094;49.948;11.574;2022-12-20T12:52:27;26.83;;;23.97;;
8102;SDS011;4094;49.948;11.574;2022-12-20T12:58:12;27.50;;;24.67;;
8102;SDS011;4094;49.948;11.574;2022-12-20T13:00:47;27.70;;;24.80;;
8102;SDS011;4094;49.948;11.574;2022-12-20T13:09:18;28.13;;;24.80;;
8102;SDS011;4094;49.948;11.574;2022-12-20T13:11:49;27.63;;;24.73;;
8102;SDS011;4094;49.948;11.574;2022-12-20T13:14:48;28.07;;;25.27;;
8102;SDS011;4094;49.948;11.574;2022-12-20T13:20:19;29.07;;;25.23;;
8102;SDS011;4094;49.948;11.574;2022-12-20T13:23:04;27.80;;;24.90;;
8102;SDS011;4094;49.948;11.574;2022-12-20T13:25:45;27.90;;;25.00;;
8102;SDS011;4094;49.948;11.574;2022-12-20T13:34:22;26.33;;;23.53;;
8102;SDS011;4094;49.948;11.574;2022-12-20T13:37:25;27.37;;;24.57;;
8102;SDS011;4094;49.948;11.574;2022-12-20T13:39:55;26.60;;;23.90;;
8102;SDS011;4094;49.948;11.574;2022-12-20T13:42:35;28.10;;;25.03;;
8102;SDS011;4094;49.948;11.574;2022-12-20T13:45:08;26.47;;;23.63;;
8102;SDS011;4094;49.948;11.574;2022-12-20T13:47:44;27.27;;;24.43;;
8102;SDS011;4094;49.948;11.574;2022-12-20T13:50:20;27.10;;;24.30;;
8102;SDS011;4094;49.948;11.574;2022-12-20T13:52:53;27.27;;;24.43;;
8102;SDS011;4094;49.948;11.574;2022-12-20T13:55:25;27.03;;;24.30;;
8102;SDS011;4094;49.948;11.574;2022-12-20T13:58:04;26.00;;;23.30;;
8102;SDS011;4094;49.948;11.574;2022-12-20T14:00:38;28.40;;;25.07;;
8102;SDS011;4094;49.948;11.574;2022-12-20T14:06:00;28.13;;;25.23;;
8102;SDS011;4094;49.948;11.574;2022-12-20T14:08:30;26.97;;;24.17;;
8102;SDS011;4094;49.948;11.574;2022-12-20T14:11:06;29.30;;;26.30;;
8102;SDS011;4094;49.948;11.574;2022-12-20T14:13:41;29.07;;;26.10;;
8102;SDS011;4094;49.948;11.574;2022-12-20T14:16:13;28.13;;;25.17;;
8102;SDS011;4094;49.948;11.574;2022-12-20T14:18:46;27.40;;;23.90;;
8102;SDS011;4094;49.948;11.574;2022-12-20T14:21:16;27.23;;;24.33;;
8102;SDS011;4094;49.948;11.574;2022-12-20T14:23:47;25.93;;;23.13;;
8102;SDS011;4094;49.948;11.574;2022-12-20T14:26:18;26.50;;;23.80;;
8102;SDS011;4094;49.948;11.574;2022-12-20T14:28:53;25.77;;;23.23;;
8102;SDS011;4094;49.948;11.574;2022-12-20T14:31:24;27.00;;;24.30;;
8102;SDS011;4094;49.948;11.574;2022-12-20T14:34:00;27.33;;;24.43;;
8102;SDS011;4094;49.948;11.574;2022-12-20T14:36:31;26.73;;;23.93;;
8102;SDS011;4094;49.948;11.574;2022-12-20T14:41:54;26.93;;;24.23;;
8102;SDS011;4094;49.948;11.574;2022-12-20T14:44:25;28.10;;;25.10;;
8102;SDS011;4094;49.948;11.574;2022-12-20T14:46:56;26.83;;;24.03;;
8102;SDS011;4094;49.948;11.574;2022-12-20T14:49:27;28.40;;;25.30;;
8102;SDS011;4094;49.948;11.574;2022-12-20T14:52:10;26.80;;;23.90;;
8102;SDS011;4094;49.948;11.574;2022-12-20T14:54:42;27.20;;;24.30;;
8102;SDS011;4094;49.948;11.574;2022-12-20T14:57:38;26.07;;;23.27;;
8102;SDS011;4094;49.948;11.574;2022-12-20T15:00:20;29.53;;;24.27;;
8102;SDS011;4094;49.948;11.574;2022-12-20T15:02:59;26.07;;;23.30;;
8102;SDS011;4094;49.948;11.574;2022-12-20T15:08:19;25.33;;;22.83;;
8102;SDS011;4094;49.948;11.574;2022-12-20T15:10:58;26.67;;;23.97;;
8102;SDS011;4094;49.948;11.574;2022-12-20T15:13:31;27.37;;;24.47;;
8102;SDS011;4094;49.948;11.574;2022-12-20T15:16:04;26.20;;;23.40;;
8102;SDS011;4094;49.948;11.574;2022-12-20T15:18:42;25.93;;;23.13;;
8102;SDS011;4094;49.948;11.574;2022-12-20T15:21:13;26.40;;;23.60;;
8102;SDS011;4094;49.948;11.574;2022-12-20T15:23:47;26.53;;;23.73;;
8102;SDS011;4094;49.948;11.574;2022-12-20T15:26:18;25.93;;;23.07;;
8102;SDS011;4094;49.948;11.574;2022-12-20T15:28:48;26.33;;;23.53;;
8102;SDS011;4094;49.948;11.574;2022-12-20T15:31:20;26.90;;;24.00;;
8102;SDS011;4094;49.948;11.574;2022-12-20T15:33:59;26.00;;;23.20;;
8102;SDS011;4094;49.948;11.574;2022-12-20T15:36:31;25.17;;;22.63;;
8102;SDS011;4094;49.948;11.574;2022-12-20T15:39:00;25.53;;;22.83;;
8102;SDS011;4094;49.948;11.574;2022-12-20T15:41:45;25.80;;;23.27;;
8102;SDS011;4094;49.948;11.574;2022-12-20T15:44:18;25.97;;;23.27;;
8102;SDS011;4094;49.948;11.574;2022-12-20T15:46:50;25.53;;;22.83;;
8102;SDS011;4094;49.948;11.574;2022-12-20T15:49:20;25.40;;;22.80;;